Impacts TAF Board
For situational awareness. Not to be used for flight planning purposes.
IDs:

KMAF - Midland Intl, TX, US

Issued at 2219 UTC 02 Aug 2021
Updated at 2258 UTC 02 Aug 2021
Potential Impact None Slight Moderate High
Time2253Z 02/23Z 03/00Z 03/01Z 03/02Z 03/03Z 03/04Z 03/05Z 03/06Z 03/07Z 03/08Z 03/09Z 03/10Z 03/11Z>>
Type OBS PRVL PRVL PRVL PRVL PRVL PRVL PRVL PRVL PRVL PRVL PRVL PRVL PRVL
VIS 6 5 5 5 >6 >6 >6 >6 >6 >6 >6 >6 >6 >6
CIG 49 -- -- -- -- -- -- -- -- -- -- -- -- --
Cover BKN SCT SCT SCT FEW FEW FEW FEW FEW FEW FEW FEW FEW FEW
FltCat VFR MVFR MVFR MVFR VFR VFR VFR VFR VFR VFR VFR VFR VFR VFR
WX HZ HZ HZ HZ -- -- -- -- -- -- -- -- -- --
WDir 50 50 40 40 70 70 70 70 70 70 70 70 70 70
WSpd 12 12 11 11 6 6 6 6 6 6 6 6 6 6
WGst -- 17 -- -- -- -- -- -- -- -- -- -- -- --
Raw TAF
KMAF 022219Z 0222/0318 05012G17KT 5SM HZ SCT045 SCT080
  FM030000 04011KT 5SM HZ SCT070
  FM030200 07006KT P6SM FEW250


Raw METAR
KMAF 022253Z 05012KT 6SM HZ BKN049 28/16 A3013 RMK AO2 SLP158 T02780156 $
KMAF 022153Z 05011G14KT 5SM HZ SCT046 27/16 A3014 RMK AO2 SLP162 T02720156 $
KMAF 022053Z 05008KT 5SM HZ SCT044 27/16 A3016 RMK AO2 SLP170 T02670156 58019 $
KMAF 021953Z 06009KT 5SM HZ SCT037 26/17 A3018 RMK AO2 SLP179 T02560167 $

METAR Board
Radar Display
Forecast Discussion
For situational awareness. Not to be used for flight planning purposes.